Terminal Aerodrome Forecast
Issued by NWS

Home | Current Version | Previous Version | Graphics & Text | Print | Product List | Glossary On
Versions: 1 2 3 4 5 6 7 8 9 10 11 12 13
000
FTUS45 KGGW 190520
TAFOLF
TAF
KOLF 190520Z 1906/2006 VRB04KT P6SM FEW170
     FM191900 26008KT P6SM SCT160
     FM200200 24004KT P6SM FEW240 WS020/26035KT=

USA.gov is the U.S. government's official web portal to all federal, state and local government web resources and services.